Time;durP1;ratioP1;P1;durP2;ratioP2;P2;SDS_P1;SDS_P2;PMS_P1;PMS_P2;Temp;Humidity;BMP_temperature;BMP_pressure;BME280_temperature;BME280_humidity;BME280_pressure;Samples;Min_cycle;Max_cycle;Signal;HPM_P1;HPM_P2
2022/07/23 00:01:02;;;;;;;6.93;4.50;;;;;;;16.10;100.00;101805.41;5026329;28;20131;-59
2022/07/23 00:03:28;;;;;;;5.03;4.32;;;;;;;16.09;100.00;101803.66;5026710;28;20079;-58
2022/07/23 00:05:53;;;;;;;5.03;4.30;;;;;;;16.08;100.00;101802.78;5026932;28;20029;-58
2022/07/23 00:08:18;;;;;;;6.97;5.15;;;;;;;16.03;100.00;101811.38;5025459;28;20010;-58
2022/07/23 00:10:44;;;;;;;5.88;4.45;;;;;;;15.99;100.00;101819.94;5021456;28;20469;-57
2022/07/23 00:13:09;;;;;;;6.45;4.88;;;;;;;15.95;100.00;101809.41;5017057;28;20032;-56
2022/07/23 00:15:34;;;;;;;7.32;4.57;;;;;;;15.93;100.00;101813.72;5029365;28;20530;-58
2022/07/23 00:18:00;;;;;;;4.82;4.38;;;;;;;15.92;100.00;101806.72;5020687;28;20482;-58
2022/07/23 00:20:25;;;;;;;5.57;4.43;;;;;;;15.89;100.00;101813.59;5024225;28;20022;-57
2022/07/23 00:22:53;;;;;;;5.55;4.90;;;;;;;15.80;100.00;101806.41;5018392;28;20112;-58
2022/07/23 00:25:19;;;;;;;4.93;4.50;;;;;;;15.74;100.00;101812.34;5030851;28;20098;-58
2022/07/23 00:27:44;;;;;;;4.75;4.00;;;;;;;15.69;100.00;101809.63;5031354;28;20153;-58
2022/07/23 00:30:11;;;;;;;6.47;5.25;;;;;;;15.65;100.00;101809.50;5018698;28;20496;-59
2022/07/23 00:32:54;;;;;;;5.35;4.20;;;;;;;15.59;100.00;101808.50;5012026;28;20022;-59
2022/07/23 00:35:20;;;;;;;5.38;4.88;;;;;;;15.51;100.00;101803.94;5013534;28;20034;-57
2022/07/23 00:37:46;;;;;;;5.70;4.82;;;;;;;15.44;100.00;101802.84;5016060;28;20163;-58
2022/07/23 00:40:12;;;;;;;7.20;4.72;;;;;;;15.38;100.00;101805.31;5027108;28;20586;-57
2022/07/23 00:42:39;;;;;;;5.32;4.90;;;;;;;15.32;100.00;101792.97;5023452;28;20042;-57
2022/07/23 00:45:05;;;;;;;7.88;5.45;;;;;;;15.31;100.00;101806.88;5014936;28;20022;-57
2022/07/23 00:47:30;;;;;;;6.10;5.13;;;;;;;15.31;100.00;101806.88;5028799;28;20013;-58
2022/07/23 00:49:56;;;;;;;6.28;5.70;;;;;;;15.27;100.00;101800.69;5030006;28;20153;-57
2022/07/23 00:52:21;;;;;;;5.90;4.95;;;;;;;15.24;100.00;101806.69;5010035;28;20469;-58
2022/07/23 00:54:47;;;;;;;8.63;5.53;;;;;;;15.22;100.00;101799.66;5020840;28;20481;-57
2022/07/23 00:57:12;;;;;;;5.60;4.93;;;;;;;15.19;100.00;101804.78;5012185;28;20124;-58
2022/07/23 00:59:38;;;;;;;6.25;5.25;;;;;;;15.16;100.00;101807.31;5019550;28;20041;-57
2022/07/23 01:02:04;;;;;;;8.10;5.88;;;;;;;15.09;100.00;101806.25;5012243;28;20481;-57
2022/07/23 01:04:29;;;;;;;6.43;5.82;;;;;;;15.04;100.00;101800.03;5029895;28;20022;-57
2022/07/23 01:06:54;;;;;;;8.77;5.05;;;;;;;14.97;100.00;101802.44;5030299;28;20280;-57
2022/07/23 01:09:20;;;;;;;6.75;6.00;;;;;;;14.94;100.00;101796.25;5029982;28;20489;-57
2022/07/23 01:11:46;;;;;;;7.85;6.10;;;;;;;14.92;100.00;101792.72;5029989;28;20056;-57
2022/07/23 01:14:14;;;;;;;6.90;5.47;;;;;;;14.88;100.00;101797.84;5026551;28;20453;-58
2022/07/23 01:16:41;;;;;;;6.30;5.57;;;;;;;14.84;100.00;101793.38;5019752;28;20049;-58
2022/07/23 01:19:06;;;;;;;6.20;5.65;;;;;;;14.81;100.00;101795.91;5014768;28;20381;-58
2022/07/23 01:21:41;;;;;;;6.50;5.90;;;;;;;14.81;100.00;101790.69;5029450;28;20021;-59
2022/07/23 01:24:07;;;;;;;6.45;5.78;;;;;;;14.79;100.00;101794.94;5015299;28;20030;-58
2022/07/23 01:26:32;;;;;;;6.80;5.78;;;;;;;14.75;100.00;101793.09;5029595;28;20025;-57
2022/07/23 01:28:58;;;;;;;6.35;5.45;;;;;;;14.72;100.00;101783.44;5015233;28;20482;-56
2022/07/23 01:31:24;;;;;;;6.40;5.80;;;;;;;14.65;100.00;101795.41;5029514;28;20021;-58
2022/07/23 01:33:49;;;;;;;6.40;5.80;;;;;;;14.59;100.00;101784.78;5029992;28;20077;-57
2022/07/23 01:36:14;;;;;;;6.22;5.63;;;;;;;14.55;100.00;101788.16;5028894;28;20025;-59
2022/07/23 01:38:40;;;;;;;8.80;5.57;;;;;;;14.58;100.00;101790.84;5029048;28;20032;-59
2022/07/23 01:41:05;;;;;;;6.65;5.95;;;;;;;14.55;100.00;101788.16;5027961;28;20433;-58
2022/07/23 01:43:30;;;;;;;7.22;6.30;;;;;;;14.52;100.00;101793.25;5017933;28;20028;-57
2022/07/23 01:45:56;;;;;;;5.25;4.78;;;;;;;14.49;100.00;101788.84;5014624;28;20017;-58
2022/07/23 01:48:21;;;;;;;6.50;5.90;;;;;;;14.46;100.00;101793.06;5008829;28;20024;-57
2022/07/23 01:50:47;;;;;;;9.18;6.88;;;;;;;14.45;100.00;101791.28;5018393;28;20032;-58
2022/07/23 01:53:13;;;;;;;6.47;5.93;;;;;;;14.42;100.00;101794.69;5017585;28;20021;-58
2022/07/23 01:55:41;;;;;;;6.63;5.90;;;;;;;14.37;100.00;101785.84;5028632;28;20029;-58
2022/07/23 01:58:06;;;;;;;6.60;6.03;;;;;;;14.34;100.00;101789.22;5026079;28;20037;-57
2022/07/23 02:00:31;;;;;;;6.35;5.55;;;;;;;14.33;100.00;101792.69;5022435;28;20029;-59
2022/07/23 02:02:58;;;;;;;7.35;6.65;;;;;;;14.35;100.00;101780.59;5022704;28;20551;-58
2022/07/23 02:05:24;;;;;;;7.45;6.80;;;;;;;14.33;100.00;101787.47;5008334;28;20479;-58
2022/07/23 02:07:49;;;;;;;6.05;5.45;;;;;;;14.29;100.00;101781.28;5011560;28;20021;-57
2022/07/23 02:10:14;;;;;;;6.30;5.40;;;;;;;14.28;100.00;101778.63;5022382;28;20037;-59
2022/07/23 02:12:40;;;;;;;8.40;5.43;;;;;;;14.25;100.00;101784.63;5012783;28;20061;-58
2022/07/23 02:15:06;;;;;;;5.68;5.05;;;;;;;14.22;100.00;101773.22;5018534;28;20064;-58
2022/07/23 02:17:31;;;;;;;6.72;5.68;;;;;;;14.25;100.00;101781.13;5013917;28;20710;-58
2022/07/23 02:19:57;;;;;;;7.60;6.00;;;;;;;14.26;100.00;101775.97;5016915;28;20179;-58
2022/07/23 02:22:22;;;;;;;6.28;5.68;;;;;;;14.25;100.00;101773.28;5008302;28;20036;-57
2022/07/23 02:24:47;;;;;;;7.75;5.40;;;;;;;14.21;100.00;101771.44;5008639;28;20491;-58
2022/07/23 02:27:13;;;;;;;5.93;5.53;;;;;;;14.13;100.00;101779.91;5022731;28;20037;-59
2022/07/23 02:29:38;;;;;;;8.07;5.40;;;;;;;14.12;100.00;101772.91;5028272;28;20025;-58
2022/07/23 02:32:03;;;;;;;5.85;5.25;;;;;;;14.09;100.00;101772.81;5028601;28;20496;-57
2022/07/23 02:34:29;;;;;;;7.35;5.72;;;;;;;14.06;100.00;101775.31;5022640;28;20117;-58
2022/07/23 02:36:54;;;;;;;8.43;5.90;;;;;;;14.03;100.00;101777.84;5032091;28;20034;-59
2022/07/23 02:39:19;;;;;;;9.00;5.88;;;;;;;13.99;100.00;101774.25;5025188;28;20057;-57
2022/07/23 02:41:45;;;;;;;6.47;5.97;;;;;;;13.95;100.00;101774.97;5023153;28;20083;-58
2022/07/23 02:44:10;;;;;;;6.35;5.75;;;;;;;13.93;100.00;101772.31;5019690;28;20080;-58
2022/07/23 02:46:35;;;;;;;7.13;5.85;;;;;;;13.95;100.00;101779.28;5027551;28;20029;-58
2022/07/23 02:49:01;;;;;;;5.93;5.43;;;;;;;13.95;100.00;101781.91;5027467;28;20025;-58
2022/07/23 02:51:26;;;;;;;6.43;5.82;;;;;;;13.92;100.00;101785.31;5027547;28;20039;-59
2022/07/23 02:53:52;;;;;;;7.18;5.53;;;;;;;13.88;100.00;101789.53;5027977;28;20041;-58
2022/07/23 02:56:17;;;;;;;7.00;5.75;;;;;;;13.87;100.00;101786.88;5027814;28;20470;-59
2022/07/23 02:58:42;;;;;;;6.32;5.72;;;;;;;13.88;100.00;101780.81;5024180;28;20049;-58
2022/07/23 03:01:07;;;;;;;7.25;5.65;;;;;;;13.85;100.00;101789.41;5017237;28;20457;-59
2022/07/23 03:03:33;;;;;;;5.80;5.30;;;;;;;13.84;100.00;101789.34;5013816;28;20034;-58
2022/07/23 03:05:58;;;;;;;6.80;6.20;;;;;;;13.82;100.00;101786.69;5026459;28;20431;-57
2022/07/23 03:08:24;;;;;;;6.63;5.38;;;;;;;13.81;100.00;101790.16;5015178;28;20026;-59
2022/07/23 03:10:50;;;;;;;7.00;5.95;;;;;;;13.75;100.00;101793.44;5021617;28;20029;-59
2022/07/23 03:13:15;;;;;;;6.43;5.82;;;;;;;13.69;100.00;101788.00;5017881;28;20032;-58
2022/07/23 03:15:40;;;;;;;6.35;5.75;;;;;;;13.69;100.00;101794.09;5024826;28;20022;-58
2022/07/23 03:18:05;;;;;;;6.72;5.88;;;;;;;13.66;100.00;101798.31;5018692;28;20052;-58
2022/07/23 03:20:31;;;;;;;5.93;5.40;;;;;;;13.60;100.00;101793.78;5027150;28;20025;-56
2022/07/23 03:22:56;;;;;;;6.13;5.63;;;;;;;13.57;100.00;101798.88;5027771;28;20030;-57
2022/07/23 03:25:22;;;;;;;7.60;6.35;;;;;;;13.54;100.00;101793.59;5026797;28;20794;-58
2022/07/23 03:27:48;;;;;;;5.80;5.30;;;;;;;13.53;100.00;101794.38;5027728;28;20040;-57
2022/07/23 03:30:13;;;;;;;7.15;5.38;;;;;;;13.52;100.00;101790.00;5015041;28;20465;-58
2022/07/23 03:32:38;;;;;;;6.45;5.50;;;;;;;13.51;100.00;101798.66;5024945;28;20389;-59
2022/07/23 03:35:04;;;;;;;6.35;5.72;;;;;;;13.46;100.00;101795.88;5017270;28;20053;-58
2022/07/23 03:37:30;;;;;;;8.20;6.07;;;;;;;13.41;100.00;101793.13;5023556;28;20104;-58
2022/07/23 03:39:55;;;;;;;8.50;5.45;;;;;;;13.41;100.00;101793.13;5026597;28;20544;-59
2022/07/23 03:42:20;;;;;;;6.47;5.55;;;;;;;13.40;100.00;101796.53;5014105;28;20134;-58
2022/07/23 03:44:46;;;;;;;6.28;5.70;;;;;;;13.36;100.00;101798.97;5019339;28;20021;-59
2022/07/23 03:47:11;;;;;;;6.65;6.03;;;;;;;13.28;100.00;101807.41;5005304;28;20088;-58
2022/07/23 03:49:36;;;;;;;7.20;6.45;;;;;;;13.22;100.00;101807.19;5005380;28;20022;-59
2022/07/23 03:52:02;;;;;;;7.80;6.20;;;;;;;13.22;100.00;101796.78;5024904;28;20470;-58
2022/07/23 03:54:28;;;;;;;10.05;7.15;;;;;;;13.20;100.00;101799.31;5025309;28;20021;-58
2022/07/23 03:56:54;;;;;;;6.68;5.95;;;;;;;13.21;100.00;101802.81;5012550;28;20037;-57
2022/07/23 03:59:19;;;;;;;7.07;6.30;;;;;;;13.19;100.00;101802.75;5017024;28;20028;-58
2022/07/23 04:01:45;;;;;;;7.80;7.10;;;;;;;13.17;100.00;101798.31;5006592;28;20037;-58
2022/07/23 04:04:10;;;;;;;7.32;6.72;;;;;;;13.12;100.00;101800.75;5025900;28;20032;-58
2022/07/23 04:06:36;;;;;;;7.45;6.70;;;;;;;13.11;100.00;101803.28;5015446;28;20544;-58
2022/07/23 04:09:02;;;;;;;9.27;6.80;;;;;;;13.11;100.00;101814.59;5020823;28;20022;-58
2022/07/23 04:11:27;;;;;;;8.75;7.63;;;;;;;13.08;100.00;101804.94;5007625;28;20022;-58
2022/07/23 04:13:53;;;;;;;8.35;7.53;;;;;;;13.08;100.00;101806.66;5010018;28;20088;-57
2022/07/23 04:16:18;;;;;;;9.68;7.55;;;;;;;13.09;100.00;101808.44;5019093;28;20501;-57
2022/07/23 04:18:43;;;;;;;7.65;6.95;;;;;;;13.09;100.00;101806.75;5022841;28;20128;-59
2022/07/23 04:21:10;;;;;;;7.97;7.15;;;;;;;13.10;100.00;101812.81;5025450;28;20385;-59
2022/07/23 04:23:35;;;;;;;8.23;7.43;;;;;;;13.11;100.00;101812.00;5010879;28;20025;-59
2022/07/23 04:26:00;;;;;;;7.43;6.80;;;;;;;13.17;100.00;101819.13;5007689;28;20389;-59
2022/07/23 04:28:26;;;;;;;7.20;6.50;;;;;;;13.19;100.00;101827.88;5020873;28;20045;-58
2022/07/23 04:30:51;;;;;;;7.82;7.15;;;;;;;13.21;100.00;101824.50;5006972;28;20092;-58
2022/07/23 04:33:17;;;;;;;8.68;7.80;;;;;;;13.24;100.00;101822.84;5007018;28;20022;-58
2022/07/23 04:35:42;;;;;;;8.63;7.75;;;;;;;13.21;100.00;101826.22;5012208;28;20022;-58
2022/07/23 04:38:07;;;;;;;9.27;8.48;;;;;;;13.18;100.00;101824.41;5007107;28;20080;-58
2022/07/23 04:40:33;;;;;;;12.27;8.40;;;;;;;13.18;100.00;101832.22;5006998;28;20096;-57
2022/07/23 04:42:58;;;;;;;9.48;8.60;;;;;;;13.17;100.00;101827.81;5016588;28;20105;-58
2022/07/23 04:45:24;;;;;;;9.55;8.65;;;;;;;13.20;100.00;101835.75;5010736;28;20088;-58
2022/07/23 04:47:50;;;;;;;10.20;8.73;;;;;;;13.25;100.00;101842.84;5011996;28;20022;-58
2022/07/23 04:50:21;;;;;;;9.55;8.60;;;;;;;13.30;100.00;101846.50;5020560;28;20052;-59
2022/07/23 04:52:47;;;;;;;9.45;8.60;;;;;;;13.37;100.00;101851.09;5022671;28;20080;-59
2022/07/23 04:55:13;;;;;;;10.52;9.57;;;;;;;13.41;100.00;101850.38;5024601;28;20550;-58
2022/07/23 04:57:38;;;;;;;10.00;9.20;;;;;;;13.44;100.00;101840.06;5015343;28;20037;-57
2022/07/23 05:00:04;;;;;;;9.80;8.88;;;;;;;13.50;100.00;101844.63;5016673;28;20029;-58
2022/07/23 05:02:29;;;;;;;10.95;9.57;;;;;;;13.56;100.00;101844.00;5022164;28;20033;-59
2022/07/23 05:04:55;;;;;;;11.02;10.02;;;;;;;13.63;100.00;101846.00;5019705;28;20022;-58
2022/07/23 05:07:20;;;;;;;10.98;9.88;;;;;;;13.71;100.00;101850.59;5020323;28;20026;-57
2022/07/23 05:09:45;;;;;;;11.82;10.77;;;;;;;13.76;100.00;101849.03;5018367;28;20069;-59
2022/07/23 05:12:10;;;;;;;11.80;10.80;;;;;;;13.81;100.00;101848.31;5027731;28;20025;-58
2022/07/23 05:14:36;;;;;;;13.13;11.05;;;;;;;13.90;100.00;101849.50;5025449;28;20033;-58
2022/07/23 05:17:01;;;;;;;12.65;11.50;;;;;;;13.95;100.00;101847.03;5016396;28;20025;-57
2022/07/23 05:19:26;;;;;;;12.18;11.18;;;;;;;14.01;100.00;101848.13;5029812;28;20053;-57
2022/07/23 05:21:52;;;;;;;12.75;11.65;;;;;;;14.08;100.00;101849.25;5016101;28;20235;-56
2022/07/23 05:24:17;;;;;;;11.85;10.50;;;;;;;14.14;100.00;101854.63;5028971;28;20022;-56
2022/07/23 05:26:42;;;;;;;13.40;12.07;;;;;;;14.22;100.00;101859.22;5029145;28;20457;-58
2022/07/23 05:29:07;;;;;;;12.70;11.50;;;;;;;14.27;100.00;101855.94;5029322;28;20013;-58
2022/07/23 05:31:33;;;;;;;12.32;11.20;;;;;;;14.30;100.00;101860.38;5018953;28;20045;-58
2022/07/23 05:33:58;;;;;;;13.07;12.02;;;;;;;14.31;100.00;101854.31;5011088;28;20029;-59
2022/07/23 05:36:23;;;;;;;13.50;12.18;;;;;;;14.36;100.00;101863.19;5021593;28;20100;-58
2022/07/23 05:38:49;;;;;;;17.25;13.38;;;;;;;14.45;100.00;101853.88;5010948;28;20018;-57
2022/07/23 05:41:14;;;;;;;16.67;13.30;;;;;;;14.56;100.00;101862.03;5015761;28;20550;-57
2022/07/23 05:43:39;;;;;;;13.48;12.35;;;;;;;14.67;100.00;101867.59;5011860;28;20028;-58
2022/07/23 05:46:05;;;;;;;13.98;12.55;;;;;;;14.79;100.00;101859.28;5012086;28;20026;-57
2022/07/23 05:48:30;;;;;;;13.18;12.00;;;;;;;14.89;100.00;101870.06;5011402;28;20018;-57
2022/07/23 05:50:55;;;;;;;13.32;12.13;;;;;;;15.02;100.00;101877.41;5011906;28;20113;-58
2022/07/23 05:53:22;;;;;;;12.73;11.38;;;;;;;15.13;100.00;101876.88;5013771;28;20026;-57
2022/07/23 05:55:47;;;;;;;14.38;12.80;;;;;;;15.27;100.00;101873.78;5014964;28;20038;-58
2022/07/23 05:58:12;;;;;;;13.38;12.07;;;;;;;15.39;100.00;101882.78;5010980;28;20014;-58
2022/07/23 06:00:38;;;;;;;12.30;11.00;;;;;;;15.52;100.00;101873.59;5009800;28;20055;-58
2022/07/23 06:03:03;;;;;;;10.70;9.70;;;;;;;15.67;100.00;101876.63;5014357;28;20585;-56
2022/07/23 06:05:28;;;;;;;10.20;9.30;;;;;;;15.82;100.00;101881.38;5013129;28;20516;-58
2022/07/23 06:07:54;;;;;;;11.27;10.20;;;;;;;15.99;100.00;101885.28;5010480;28;20033;-57
2022/07/23 06:10:19;;;;;;;9.73;8.77;;;;;;;16.16;100.00;101890.97;5011605;28;20492;-56
2022/07/23 06:12:45;;;;;;;8.68;7.95;;;;;;;16.30;100.00;101886.97;5015342;28;20607;-58
2022/07/23 06:15:11;;;;;;;8.10;7.28;;;;;;;16.46;100.00;101889.97;5008781;28;20032;-58
2022/07/23 06:17:39;;;;;;;7.63;6.93;;;;;;;16.62;100.00;101887.72;5014408;28;20494;-58
2022/07/23 06:20:08;;;;;;;7.30;6.60;;;;;;;16.77;100.00;101888.06;5016728;28;20033;-58
2022/07/23 06:22:33;;;;;;;7.15;6.45;;;;;;;16.93;100.00;101884.06;5028013;28;20021;-58
2022/07/23 06:24:58;;;;;;;7.45;6.75;;;;;;;17.09;100.00;101883.53;5028771;28;20021;-58
2022/07/23 06:27:24;;;;;;;6.50;5.75;;;;;;;17.24;100.00;101883.88;5024838;28;20032;-57
2022/07/23 06:29:49;;;;;;;7.57;6.82;;;;;;;17.38;100.00;101891.13;5008390;28;20022;-58
2022/07/23 06:32:14;;;;;;;7.28;5.97;;;;;;;17.44;99.07;101888.66;5010804;28;20028;-58
2022/07/23 06:34:40;;;;;;;7.22;6.18;;;;;;;17.54;97.92;101889.69;5018847;28;20155;-57
2022/07/23 06:37:05;;;;;;;6.90;6.30;;;;;;;17.64;97.02;101886.44;5017658;28;20515;-57
2022/07/23 06:39:31;;;;;;;6.97;6.22;;;;;;;17.82;98.06;101894.59;5019733;28;20034;-58
2022/07/23 06:41:56;;;;;;;7.38;6.60;;;;;;;18.02;98.26;101894.97;5012387;28;20442;-58
2022/07/23 06:44:22;;;;;;;6.22;5.60;;;;;;;18.21;97.02;101896.19;5021936;28;20036;-58
2022/07/23 06:46:47;;;;;;;5.32;4.82;;;;;;;18.34;93.10;101897.28;5025239;28;20080;-59
2022/07/23 06:49:13;;;;;;;6.10;5.28;;;;;;;18.52;93.02;101894.91;5018363;28;20026;-58
2022/07/23 06:51:38;;;;;;;5.78;5.28;;;;;;;18.63;89.48;101888.09;5015218;28;20101;-58
2022/07/23 06:54:04;;;;;;;5.95;5.28;;;;;;;18.75;89.42;101891.75;5029777;28;20033;-58
2022/07/23 06:56:29;;;;;;;6.10;4.65;;;;;;;18.93;89.03;101905.16;5017051;28;20104;-58
2022/07/23 06:58:54;;;;;;;6.10;5.50;;;;;;;19.08;87.39;101895.72;5026051;28;20064;-57
2022/07/23 07:01:21;;;;;;;6.30;5.50;;;;;;;19.11;84.51;101898.38;5028881;28;20087;-59
2022/07/23 07:03:46;;;;;;;7.18;5.20;;;;;;;19.20;85.98;101892.38;5029163;28;20037;-59
2022/07/23 07:06:12;;;;;;;5.32;4.82;;;;;;;19.31;85.78;101903.03;5020691;28;20454;-58
2022/07/23 07:08:37;;;;;;;7.05;4.82;;;;;;;19.50;85.07;101893.63;5022905;28;20541;-58
2022/07/23 07:11:03;;;;;;;7.40;4.45;;;;;;;19.71;84.31;101896.47;5008059;28;20053;-59
2022/07/23 07:13:28;;;;;;;5.00;4.50;;;;;;;19.92;84.23;101888.81;5008074;28;20034;-59
2022/07/23 07:15:53;;;;;;;4.13;3.72;;;;;;;20.09;81.73;101888.13;5008387;28;20029;-59
2022/07/23 07:18:19;;;;;;;5.45;4.82;;;;;;;20.21;79.20;101886.44;5014938;28;20358;-57
2022/07/23 07:20:44;;;;;;;6.47;3.92;;;;;;;20.34;81.05;101887.44;5010976;28;20025;-58
2022/07/23 07:23:09;;;;;;;8.75;4.50;;;;;;;20.46;78.21;101884.00;5010920;28;20112;-59
2022/07/23 07:25:35;;;;;;;5.05;4.07;;;;;;;20.54;76.96;101889.31;5017131;28;20025;-58
2022/07/23 07:28:00;;;;;;;4.88;3.83;;;;;;;20.56;77.84;101898.97;5016139;28;20039;-58
2022/07/23 07:30:26;;;;;;;6.93;3.88;;;;;;;20.62;78.52;101893.78;5016004;28;20112;-57
2022/07/23 07:32:51;;;;;;;5.57;4.40;;;;;;;20.70;77.87;101901.72;5008548;28;20040;-59
2022/07/23 07:35:16;;;;;;;7.45;4.53;;;;;;;20.75;75.51;101904.38;5010663;28;20028;-59
2022/07/23 07:37:42;;;;;;;5.13;4.22;;;;;;;20.77;75.98;101905.28;5011429;28;20413;-59
2022/07/23 07:40:08;;;;;;;7.47;5.05;;;;;;;20.88;77.41;101908.84;5013274;28;20021;-59
2022/07/23 07:42:34;;;;;;;5.45;4.88;;;;;;;20.95;72.88;101911.56;5011281;28;20615;-59
2022/07/23 07:44:59;;;;;;;5.63;5.03;;;;;;;21.03;73.24;101906.34;5013148;28;20034;-59
2022/07/23 07:47:25;;;;;;;4.28;3.83;;;;;;;21.11;73.14;101902.84;5010888;28;20038;-58
2022/07/23 07:49:50;;;;;;;7.05;4.82;;;;;;;21.14;72.79;101909.03;5010257;28;20351;-58
2022/07/23 07:52:15;;;;;;;6.05;5.18;;;;;;;21.17;73.29;101901.13;5011510;28;20505;-58
2022/07/23 07:54:40;;;;;;;4.70;4.30;;;;;;;21.16;72.55;101904.63;5011305;28;20021;-59
2022/07/23 07:57:06;;;;;;;7.95;5.38;;;;;;;21.14;71.47;101901.13;5013774;28;20461;-58
2022/07/23 07:59:31;;;;;;;5.35;4.93;;;;;;;21.19;70.93;101902.00;5015601;28;20115;-59
2022/07/23 08:01:56;;;;;;;6.28;5.65;;;;;;;21.06;68.88;101899.31;5012288;28;20030;-58
2022/07/23 08:04:22;;;;;;;5.45;5.00;;;;;;;20.93;71.58;101905.34;5011532;28;20113;-58
2022/07/23 08:06:47;;;;;;;6.75;5.55;;;;;;;21.17;73.17;101912.56;5012806;28;20390;-59
2022/07/23 08:09:12;;;;;;;5.70;5.20;;;;;;;21.47;72.85;101910.00;5014134;28;20505;-59
2022/07/23 08:11:38;;;;;;;5.68;5.13;;;;;;;21.63;68.92;101910.06;5021723;28;20026;-58
2022/07/23 08:14:03;;;;;;;6.07;5.25;;;;;;;21.72;68.53;101907.44;5012078;28;20159;-57
2022/07/23 08:16:29;;;;;;;5.72;5.05;;;;;;;21.93;68.77;101903.09;5008151;28;20030;-57
2022/07/23 08:18:54;;;;;;;7.07;5.45;;;;;;;22.14;67.38;101909.28;5010667;28;20021;-58
2022/07/23 08:21:19;;;;;;;4.85;4.45;;;;;;;22.37;66.98;101913.69;5019048;28;20105;-59
2022/07/23 08:23:45;;;;;;;6.60;4.82;;;;;;;22.52;67.22;101913.66;5021550;28;20030;-58
2022/07/23 08:26:10;;;;;;;7.13;4.85;;;;;;;22.62;65.20;101913.66;5019086;28;20042;-58
2022/07/23 08:28:35;;;;;;;6.82;5.20;;;;;;;22.71;66.05;101918.94;5014152;28;20402;-59
2022/07/23 08:31:01;;;;;;;9.20;5.03;;;;;;;22.74;64.21;101918.94;5025469;28;20099;-58
2022/07/23 08:33:28;;;;;;;5.72;4.57;;;;;;;22.87;63.69;101924.19;5023173;28;20113;-57
2022/07/23 08:35:54;;;;;;;5.90;4.78;;;;;;;22.75;63.01;101920.72;5020431;28;20516;-59
2022/07/23 08:38:21;;;;;;;4.97;4.57;;;;;;;22.85;62.90;101934.75;5030743;28;20057;-58
2022/07/23 08:40:54;;;;;;;5.70;5.15;;;;;;;22.77;63.17;101926.84;5017625;28;20034;-58
2022/07/23 08:43:22;;;;;;;6.22;5.60;;;;;;;22.54;65.17;101940.94;5017613;28;20033;-59
2022/07/23 08:45:50;;;;;;;7.47;6.78;;;;;;;22.31;65.29;101933.91;5013358;28;20402;-59
2022/07/23 08:48:27;;;;;;;7.65;5.40;;;;;;;22.13;64.18;101932.16;5012898;28;20029;-59
2022/07/23 08:50:57;;;;;;;6.07;5.50;;;;;;;22.28;64.90;101947.13;5013226;28;20123;-59
2022/07/23 08:53:25;;;;;;;5.72;5.13;;;;;;;22.47;64.59;101941.81;5032981;28;20029;-59
2022/07/23 08:55:53;;;;;;;4.93;4.47;;;;;;;22.54;63.56;101948.88;5012774;28;20340;-59
2022/07/23 08:58:19;;;;;;;4.35;3.95;;;;;;;22.65;64.84;101946.25;5020279;28;20470;-59
2022/07/23 09:00:46;;;;;;;5.07;3.78;;;;;;;22.78;63.98;101935.66;5017718;28;20075;-59
2022/07/23 09:03:23;;;;;;;3.65;3.17;;;;;;;22.95;62.69;101943.56;5028464;28;20121;-59
2022/07/23 09:05:53;;;;;;;5.47;4.13;;;;;;;23.20;62.13;101943.47;5017262;28;20469;-59
2022/07/23 09:08:24;;;;;;;3.90;2.92;;;;;;;23.41;62.47;101940.72;5028136;28;20478;-58
2022/07/23 09:10:54;;;;;;;5.95;3.70;;;;;;;23.59;61.15;101934.50;5024590;28;20524;-59
2022/07/23 09:13:42;;;;;;;4.53;3.70;;;;;;;23.73;59.99;101921.19;5014331;28;20030;-58
2022/07/23 09:16:31;;;;;;;4.05;3.38;;;;;;;23.75;57.82;101930.91;5010834;28;20533;-58
2022/07/23 09:19:02;;;;;;;3.47;3.15;;;;;;;23.90;61.97;101928.16;5021023;28;20038;-58
2022/07/23 09:21:28;;;;;;;4.10;2.70;;;;;;;24.11;62.76;101917.41;5021031;28;20029;-58
2022/07/23 09:24:01;;;;;;;4.88;4.00;;;;;;;24.18;59.79;101910.31;5026815;28;20034;-59
2022/07/23 09:26:36;;;;;;;3.97;2.95;;;;;;;24.34;61.02;101908.41;5018673;28;20029;-59
2022/07/23 09:29:25;;;;;;;4.30;3.90;;;;;;;24.44;58.71;101919.81;5011636;28;20049;-59
2022/07/23 09:31:57;;;;;;;5.00;3.90;;;;;;;24.39;56.22;101911.03;5009604;28;20076;-59
2022/07/23 09:34:32;;;;;;;5.28;3.63;;;;;;;24.48;58.13;101917.13;5008979;28;20525;-59
2022/07/23 09:37:10;;;;;;;4.03;3.63;;;;;;;24.39;55.78;101915.44;5009514;28;20385;-59
2022/07/23 09:39:36;;;;;;;5.05;3.38;;;;;;;24.37;56.51;101919.88;5014223;28;20017;-59
2022/07/23 09:42:15;;;;;;;2.92;2.72;;;;;;;24.39;58.54;101921.63;5022583;28;20387;-59
2022/07/23 09:44:42;;;;;;;3.45;3.15;;;;;;;24.44;56.79;101919.81;5023319;28;20473;-60
2022/07/23 09:47:07;;;;;;;3.83;3.53;;;;;;;24.50;56.58;101928.59;5021518;28;20026;-59
2022/07/23 09:49:33;;;;;;;5.25;4.72;;;;;;;24.37;54.66;101926.06;5008381;28;20026;-58
2022/07/23 09:52:01;;;;;;;4.50;3.97;;;;;;;24.22;55.96;101930.59;5022918;28;20026;-58
2022/07/23 09:54:38;;;;;;;3.38;3.08;;;;;;;24.28;58.11;101932.31;5020691;28;20531;-58
2022/07/23 09:57:13;;;;;;;4.35;3.95;;;;;;;24.34;56.12;101926.06;5008778;28;20026;-59
2022/07/23 09:59:39;;;;;;;2.58;2.38;;;;;;;24.50;57.35;101933.88;5021568;28;20277;-58
2022/07/23 10:02:07;;;;;;;3.60;3.30;;;;;;;24.66;56.62;101935.47;5029751;28;20021;-59
2022/07/23 10:04:33;;;;;;;3.78;3.45;;;;;;;24.72;55.71;101931.03;5019898;28;20416;-59
2022/07/23 10:07:01;;;;;;;6.60;3.33;;;;;;;24.75;56.18;101925.69;5010075;28;20410;-58
2022/07/23 10:09:36;;;;;;;7.00;3.70;;;;;;;24.77;55.99;101942.47;5018820;28;20025;-60
2022/07/23 10:14:49;;;;;;;4.20;3.80;;;;;;;24.70;53.61;101921.31;5029955;28;20064;-59
2022/07/23 10:17:18;;;;;;;5.30;3.10;;;;;;;24.78;56.16;101925.66;5029430;28;20033;-59
2022/07/23 10:19:44;;;;;;;4.18;3.30;;;;;;;24.76;55.50;101919.50;5029505;28;20466;-59
2022/07/23 10:22:12;;;;;;;5.75;4.00;;;;;;;24.80;55.13;101929.16;5029398;28;20048;-59
2022/07/23 10:24:44;;;;;;;2.95;2.70;;;;;;;24.87;55.02;101937.91;5020623;28;20120;-59
2022/07/23 10:27:16;;;;;;;4.15;3.58;;;;;;;24.87;54.68;101932.63;5011073;28;20058;-58
2022/07/23 10:30:15;;;;;;;6.53;4.30;;;;;;;24.72;55.83;101933.69;5022346;28;20021;-59
2022/07/23 10:32:56;;;;;;;8.23;4.57;;;;;;;24.82;56.96;101919.44;5013708;28;20038;-59
2022/07/23 10:35:34;;;;;;;;;;;;;;;24.92;56.95;101923.75;5014488;28;20105;-58
2022/07/23 10:38:12;;;;;;;4.35;3.95;;;;;;;25.02;54.87;101926.31;5018240;28;20288;-58
2022/07/23 10:40:54;;;;;;;3.97;3.20;;;;;;;25.16;55.21;101931.44;5021237;28;20083;-58
2022/07/23 10:43:20;;;;;;;5.55;4.00;;;;;;;25.23;52.82;101929.59;5019186;28;20022;-58
2022/07/23 10:45:46;;;;;;;3.85;2.53;;;;;;;25.30;52.37;101931.25;5021987;28;20045;-58
2022/07/23 10:48:13;;;;;;;2.42;2.20;;;;;;;25.39;53.78;101925.84;5018850;28;20026;-58
2022/07/23 10:50:39;;;;;;;3.00;2.70;;;;;;;25.46;50.65;101931.03;5010469;28;20128;-58
2022/07/23 10:53:18;;;;;;;2.75;2.45;;;;;;;25.49;50.38;101926.56;5010076;28;20129;-59
2022/07/23 10:55:52;;;;;;;3.65;2.58;;;;;;;25.23;50.11;101925.16;5014980;28;20355;-59
2022/07/23 10:58:20;;;;;;;3.92;2.40;;;;;;;25.28;52.32;101923.31;5015817;28;20113;-59
2022/07/23 11:00:45;;;;;;;4.45;2.42;;;;;;;25.31;53.97;101925.06;5014509;28;20069;-59
2022/07/23 11:03:36;;;;;;;2.10;1.88;;;;;;;25.50;54.78;101924.81;5017705;28;20564;-58
2022/07/23 11:06:02;;;;;;;2.65;2.35;;;;;;;25.60;51.75;101928.22;5010104;28;20099;-59
2022/07/23 11:08:28;;;;;;;3.38;1.73;;;;;;;25.76;53.66;101923.59;5018670;28;20018;-58
2022/07/23 11:11:09;;;;;;;2.75;2.13;;;;;;;25.92;53.03;101931.31;5014324;28;20573;-59
2022/07/23 11:13:40;;;;;;;2.92;2.45;;;;;;;25.89;49.90;101929.56;5019853;28;20489;-59
2022/07/23 11:16:15;;;;;;;2.47;2.10;;;;;;;26.02;52.47;101924.97;5021517;28;20036;-58
2022/07/23 11:18:40;;;;;;;4.22;2.88;;;;;;;25.90;50.92;101921.59;5019129;28;20374;-58
2022/07/23 11:21:20;;;;;;;3.15;1.88;;;;;;;25.94;49.40;101914.44;5021498;28;20370;-58